Time;durP1;ratioP1;P1;durP2;ratioP2;P2;SDS_P1;SDS_P2;PMS_P1;PMS_P2;Temp;Humidity;BMP_temperature;BMP_pressure;BME280_temperature;BME280_humidity;BME280_pressure;Samples;Min_cycle;Max_cycle;Signal;HPM_P1;HPM_P2
2022/09/30 00:00:16;;;;;;;2.95;2.60;;;;;;;5.77;87.62;100725.88;4957275;29;20444;-82
2022/09/30 00:02:41;;;;;;;4.13;2.80;;;;;;;5.74;87.67;100728.44;4957141;29;20054;-82
2022/09/30 00:05:07;;;;;;;3.58;2.85;;;;;;;5.71;87.71;100728.41;4957138;29;20080;-83
2022/09/30 00:07:33;;;;;;;3.70;2.95;;;;;;;5.70;87.83;100732.72;4956790;29;20030;-83
2022/09/30 00:10:11;;;;;;;3.35;2.85;;;;;;;5.66;87.86;100736.13;4956239;28;20046;-82
2022/09/30 00:12:42;;;;;;;2.95;2.63;;;;;;;5.63;87.80;100738.69;4957149;29;20535;-83
2022/09/30 00:15:08;;;;;;;3.83;2.90;;;;;;;5.62;87.92;100738.69;4956301;29;20034;-82
2022/09/30 00:17:33;;;;;;;3.65;3.00;;;;;;;5.60;87.95;100738.69;4957216;29;20023;-82
2022/09/30 00:20:13;;;;;;;4.03;2.95;;;;;;;5.58;87.85;100742.97;4956731;29;20123;-83
2022/09/30 00:22:39;;;;;;;4.60;2.97;;;;;;;5.54;88.08;100742.13;4956537;29;20023;-83
2022/09/30 00:25:04;;;;;;;3.25;2.60;;;;;;;5.56;87.99;100747.25;4956765;29;20121;-83
2022/09/30 00:27:30;;;;;;;4.30;3.00;;;;;;;5.55;87.82;100745.53;4956964;29;20035;-83
2022/09/30 00:29:55;;;;;;;3.67;2.85;;;;;;;5.54;87.99;100743.81;4956032;29;20027;-82
2022/09/30 00:32:20;;;;;;;4.53;2.95;;;;;;;5.53;88.09;100742.09;4957046;29;20209;-83
2022/09/30 00:34:46;;;;;;;3.28;2.90;;;;;;;5.50;88.08;100736.94;4956772;29;20062;-83
2022/09/30 00:37:14;;;;;;;4.35;3.10;;;;;;;5.51;88.28;100741.25;4955814;29;20082;-83
2022/09/30 00:39:45;;;;;;;3.70;2.80;;;;;;;5.47;88.07;100742.06;4953203;29;20047;-83
2022/09/30 00:42:13;;;;;;;4.03;2.80;;;;;;;5.42;87.83;100744.63;4956670;29;20054;-83
2022/09/30 00:44:56;;;;;;;4.03;2.85;;;;;;;5.43;88.25;100743.78;4955859;29;20059;-83
2022/09/30 00:47:38;;;;;;;3.45;2.78;;;;;;;5.37;88.13;100736.91;4956760;29;20392;-83
2022/09/30 00:50:24;;;;;;;2.80;2.40;;;;;;;5.34;87.84;100742.00;4955922;29;20019;-83
2022/09/30 00:52:54;;;;;;;3.00;2.50;;;;;;;5.32;88.30;100743.72;4956411;29;20129;-83
2022/09/30 00:55:30;;;;;;;2.85;2.50;;;;;;;5.26;88.32;100741.97;4956705;29;20023;-83
2022/09/30 00:57:56;;;;;;;2.50;2.30;;;;;;;5.25;88.03;100744.56;4955616;29;20512;-83
2022/09/30 01:00:22;;;;;;;2.60;2.40;;;;;;;5.24;88.45;100740.25;4956463;29;20023;-83
2022/09/30 01:02:48;;;;;;;2.85;2.45;;;;;;;5.25;88.23;100741.97;4956685;29;20151;-83
2022/09/30 01:05:13;;;;;;;2.23;2.03;;;;;;;5.21;88.22;100746.25;4955577;29;20034;-83
2022/09/30 01:07:38;;;;;;;2.30;2.10;;;;;;;5.21;88.38;100751.41;4956489;29;20023;-83
2022/09/30 01:10:04;;;;;;;2.47;2.13;;;;;;;5.19;88.29;100745.38;4955788;29;20484;-83
2022/09/30 01:12:30;;;;;;;2.25;2.05;;;;;;;5.15;88.36;100755.66;4955320;29;20032;-83
2022/09/30 01:18:23;;;;;;;2.50;2.30;;;;;;;5.15;88.49;100751.34;4955663;29;20034;-83
2022/09/30 01:21:36;;;;;;;2.50;2.30;;;;;;;5.14;88.47;100753.94;4956191;29;20027;-83
2022/09/30 01:24:44;;;;;;;4.07;2.60;;;;;;;5.12;88.41;100750.47;4950402;29;20043;-83
2022/09/30 01:27:41;;;;;;;3.33;2.80;;;;;;;5.10;88.38;100748.75;4955724;29;20086;-83
2022/09/30 01:30:15;;;;;;;4.57;2.70;;;;;;;5.11;88.43;100744.50;4955965;29;20035;-83
2022/09/30 01:32:58;;;;;;;3.17;2.70;;;;;;;5.10;88.47;100751.31;4955084;29;20063;-83
2022/09/30 01:35:47;;;;;;;3.50;2.67;;;;;;;5.09;88.21;100754.75;4955980;29;20031;-83
2022/09/30 01:38:27;;;;;;;3.95;2.65;;;;;;;5.05;88.12;100750.47;4955471;29;20361;-83
2022/09/30 01:41:00;;;;;;;4.95;3.10;;;;;;;5.02;88.47;100753.00;4954391;29;20472;-83
2022/09/30 01:43:45;;;;;;;3.45;2.70;;;;;;;4.98;88.38;100748.69;4955650;29;20039;-83
2022/09/30 01:46:25;;;;;;;2.97;2.63;;;;;;;4.96;88.43;100752.94;4954800;29;20023;-83
2022/09/30 01:49:27;;;;;;;4.00;2.88;;;;;;;4.98;88.39;100753.81;4955607;29;20035;-83
2022/09/30 01:51:55;;;;;;;3.03;2.70;;;;;;;4.97;88.46;100744.38;4955419;29;20035;-83
2022/09/30 01:54:36;;;;;;;3.70;2.88;;;;;;;4.94;88.37;100749.53;4954874;29;20034;-83
2022/09/30 01:57:26;;;;;;;2.88;2.53;;;;;;;4.90;88.54;100743.47;4955283;29;20370;-83
2022/09/30 02:00:02;;;;;;;3.72;2.80;;;;;;;4.88;88.37;100750.34;4954276;29;20093;-83
2022/09/30 02:02:31;;;;;;;3.63;2.80;;;;;;;4.88;88.38;100752.03;4955590;29;20079;-83
2022/09/30 02:05:01;;;;;;;4.03;2.80;;;;;;;4.86;88.61;100758.88;4954937;29;20028;-83
2022/09/30 02:07:43;;;;;;;3.50;2.60;;;;;;;4.87;88.93;100753.78;4954684;29;20039;-83
2022/09/30 02:10:15;;;;;;;4.20;2.83;;;;;;;4.86;88.83;100746.91;4954988;29;20496;-83
2022/09/30 02:12:48;;;;;;;3.22;2.70;;;;;;;4.86;88.69;100758.88;4955110;29;20028;-83
2022/09/30 02:15:21;;;;;;;3.80;2.80;;;;;;;4.83;88.52;100761.47;4954289;29;20031;-83
2022/09/30 02:17:51;;;;;;;3.58;2.75;;;;;;;4.81;88.83;100763.16;4955242;29;20020;-83
2022/09/30 02:20:24;;;;;;;3.45;2.80;;;;;;;4.77;88.58;100759.69;4955005;29;20042;-83
2022/09/30 02:23:20;;;;;;;3.65;2.70;;;;;;;4.74;88.76;100760.50;4954289;29;20436;-83
2022/09/30 02:26:06;;;;;;;3.00;2.70;;;;;;;4.69;88.64;100757.06;4952828;29;20078;-83
2022/09/30 02:28:33;;;;;;;;;;;;;;;4.66;88.66;100757.03;4954633;29;20027;-84
2022/09/30 02:31:02;;;;;;;3.65;2.70;;;;;;;4.64;88.74;100767.31;4954176;29;19925;-83
2022/09/30 02:33:57;;;;;;;3.53;2.60;;;;;;;4.65;88.78;100765.59;4954429;28;20038;-83
2022/09/30 02:36:32;;;;;;;3.10;2.70;;;;;;;4.62;88.61;100763.00;4953850;29;20031;-83
2022/09/30 02:39:09;;;;;;;3.88;2.95;;;;;;;4.62;88.83;100755.28;4954822;29;20023;-83
2022/09/30 02:41:39;;;;;;;;;;;;;;;4.62;88.75;100755.28;4955629;29;20057;-83
2022/09/30 02:44:05;;;;;;;3.67;2.88;;;;;;;4.58;88.89;100750.97;4953845;29;20420;-83
2022/09/30 02:47:01;;;;;;;4.05;2.75;;;;;;;4.52;88.76;100751.78;4954767;29;20031;-83
2022/09/30 02:49:32;;;;;;;3.35;2.90;;;;;;;4.48;89.19;100748.34;4953962;29;20024;-83
2022/09/30 02:52:10;;;;;;;4.03;3.00;;;;;;;4.46;88.84;100749.16;4954365;29;20115;-83
2022/09/30 02:54:42;;;;;;;4.32;3.00;;;;;;;4.45;88.78;100757.72;4954795;29;20079;-83
2022/09/30 02:57:18;;;;;;;4.15;3.10;;;;;;;4.45;88.93;100757.72;4953411;29;20067;-83
2022/09/30 02:59:50;;;;;;;4.43;3.30;;;;;;;4.41;88.93;100751.69;4954926;29;20443;-83
2022/09/30 03:02:16;;;;;;;3.28;2.80;;;;;;;4.38;88.96;100750.81;4954730;29;20527;-83
2022/09/30 03:04:43;;;;;;;4.22;2.80;;;;;;;4.37;88.85;100746.50;4954164;29;20035;-83
2022/09/30 03:07:10;;;;;;;3.70;3.00;;;;;;;4.35;89.17;100751.66;4954522;29;20031;-83
2022/09/30 03:09:35;;;;;;;3.75;3.00;;;;;;;4.37;89.08;100751.66;4954869;29;20035;-83
2022/09/30 03:12:10;;;;;;;5.05;3.10;;;;;;;4.39;89.27;100761.09;4953629;29;20023;-83
2022/09/30 03:14:57;;;;;;;3.88;2.90;;;;;;;4.42;89.30;100765.41;4955083;29;20073;-83
2022/09/30 03:17:38;;;;;;;3.90;3.03;;;;;;;4.43;89.29;100767.13;4953980;29;20062;-83
2022/09/30 03:20:31;;;;;;;3.58;2.83;;;;;;;4.41;89.41;100758.56;4954309;29;20024;-83
2022/09/30 03:23:12;;;;;;;5.22;3.38;;;;;;;4.42;89.64;100765.41;4924306;29;20043;-83
2022/09/30 03:26:05;;;;;;;4.57;3.42;;;;;;;4.39;89.14;100766.22;4953216;29;20051;-83
2022/09/30 03:28:43;;;;;;;4.68;3.13;;;;;;;4.38;89.25;100766.22;4954364;29;20035;-83
2022/09/30 03:31:20;;;;;;;4.82;3.40;;;;;;;4.39;89.58;100767.94;4954310;29;20341;-84
2022/09/30 03:34:01;;;;;;;5.18;3.45;;;;;;;4.38;89.43;100769.66;4992469;23;20051;-84
2022/09/30 03:36:33;;;;;;;5.38;3.45;;;;;;;4.36;89.45;100765.34;4935168;29;20090;-83
2022/09/30 03:39:24;;;;;;;4.40;3.38;;;;;;;4.36;89.49;100762.78;4953574;29;20023;-83
2022/09/30 03:42:07;;;;;;;4.82;3.53;;;;;;;4.37;89.51;100759.34;4953969;29;20070;-84
2022/09/30 03:44:41;;;;;;;4.70;3.50;;;;;;;4.38;89.63;100759.41;4954642;28;20428;-83
2022/09/30 03:47:10;;;;;;;5.38;3.45;;;;;;;4.43;89.74;100768.00;4957096;29;20019;-83
2022/09/30 03:49:41;;;;;;;4.40;3.42;;;;;;;4.44;89.66;100771.44;4958105;29;20027;-83
2022/09/30 03:52:09;;;;;;;5.25;3.55;;;;;;;4.44;89.81;100776.56;4957689;29;20035;-83
2022/09/30 03:54:51;;;;;;;5.47;3.78;;;;;;;4.46;89.57;100780.88;4956804;29;20106;-83
2022/09/30 03:57:16;;;;;;;5.25;3.65;;;;;;;4.46;89.83;100780.88;4957335;29;20070;-83
2022/09/30 03:59:42;;;;;;;5.18;3.50;;;;;;;4.44;89.34;100774.00;4957300;29;20062;-83
2022/09/30 04:02:09;;;;;;;4.95;3.33;;;;;;;4.44;89.55;100780.00;4957582;29;20023;-83
2022/09/30 04:04:34;;;;;;;5.43;3.40;;;;;;;4.44;89.56;100797.97;4957813;29;20485;-83
2022/09/30 04:07:00;;;;;;;5.28;3.47;;;;;;;4.45;89.91;100796.25;4956438;29;20108;-83
2022/09/30 04:09:26;;;;;;;4.82;3.50;;;;;;;4.44;89.74;100794.56;4957580;29;20029;-83
2022/09/30 04:11:51;;;;;;;5.03;3.50;;;;;;;4.43;89.65;100803.97;4957137;29;20027;-83
2022/09/30 04:14:16;;;;;;;6.40;3.85;;;;;;;4.44;89.82;100797.97;4963170;23;20584;-83
2022/09/30 04:16:42;;;;;;;6.47;4.00;;;;;;;4.43;89.83;100816.81;4957592;29;20026;-83
2022/09/30 04:19:07;;;;;;;5.88;3.78;;;;;;;4.44;89.74;100820.25;4956952;29;20034;-83
2022/09/30 04:21:32;;;;;;;5.50;3.72;;;;;;;4.44;89.78;100827.97;4956004;29;20038;-83
2022/09/30 04:23:57;;;;;;;5.93;3.90;;;;;;;4.43;89.78;100832.22;4957094;29;20024;-83
2022/09/30 04:26:23;;;;;;;5.30;3.55;;;;;;;4.39;89.81;100839.91;4957021;29;20078;-83
2022/09/30 04:28:49;;;;;;;4.72;3.50;;;;;;;4.39;89.70;100840.75;4956718;29;20514;-83
2022/09/30 04:31:19;;;;;;;5.15;3.72;;;;;;;4.36;89.77;100838.16;4957107;29;20030;-83
2022/09/30 04:33:44;;;;;;;4.60;3.30;;;;;;;4.32;89.82;100850.13;4957097;29;20035;-82
2022/09/30 04:36:10;;;;;;;5.50;3.53;;;;;;;4.29;89.89;100844.06;4955930;29;20019;-83
2022/09/30 04:38:35;;;;;;;4.78;3.30;;;;;;;4.24;89.70;100833.75;4956931;29;20077;-83
2022/09/30 04:41:05;;;;;;;5.13;3.42;;;;;;;4.24;89.88;100836.31;4956630;29;20027;-83
2022/09/30 04:43:33;;;;;;;6.10;3.80;;;;;;;4.23;89.59;100842.28;4956948;29;20392;-82
2022/09/30 04:45:58;;;;;;;5.03;3.65;;;;;;;4.20;89.60;100837.16;4956477;29;20027;-83
2022/09/30 04:48:30;;;;;;;5.30;3.72;;;;;;;4.20;89.85;100838.84;4956648;29;20023;-83
2022/09/30 04:50:56;;;;;;;5.13;3.70;;;;;;;4.17;89.82;100839.69;4956049;29;20027;-82
2022/09/30 04:53:22;;;;;;;5.53;3.80;;;;;;;4.16;89.92;100850.78;4956753;29;20161;-83
2022/09/30 04:56:04;;;;;;;6.13;3.90;;;;;;;4.16;89.81;100850.78;4956004;29;20045;-83
2022/09/30 04:58:31;;;;;;;6.85;4.07;;;;;;;4.14;89.60;100849.91;4956455;29;20137;-83
2022/09/30 05:01:16;;;;;;;5.75;3.97;;;;;;;4.13;90.08;100853.31;4956617;29;20034;-83
2022/09/30 05:03:42;;;;;;;7.28;4.05;;;;;;;4.11;89.95;100860.16;4955844;29;20034;-83
2022/09/30 05:06:11;;;;;;;5.15;3.55;;;;;;;4.11;89.98;100860.16;4956353;29;20035;-83
2022/09/30 05:08:42;;;;;;;5.22;3.35;;;;;;;4.08;89.71;100867.81;4956750;29;20023;-83
2022/09/30 05:11:09;;;;;;;5.05;3.70;;;;;;;4.03;89.97;100865.22;4955565;29;20391;-83
2022/09/30 05:13:44;;;;;;;6.13;4.00;;;;;;;4.02;89.98;100866.91;4955320;29;20050;-83
2022/09/30 05:16:10;;;;;;;6.13;3.97;;;;;;;4.03;89.81;100862.63;4956059;29;20045;-83
2022/09/30 05:18:36;;;;;;;5.50;3.70;;;;;;;4.01;89.79;100870.31;4955051;29;20067;-83
2022/09/30 05:21:06;;;;;;;4.95;3.60;;;;;;;4.01;89.84;100869.47;4955736;29;20282;-83
2022/09/30 05:23:31;;;;;;;5.22;3.55;;;;;;;3.98;89.93;100865.16;4956258;29;20083;-83
2022/09/30 05:25:58;;;;;;;5.60;3.80;;;;;;;3.99;89.92;100872.03;4955044;29;20479;-83
2022/09/30 05:28:42;;;;;;;6.20;4.10;;;;;;;3.97;89.92;100871.13;4956304;29;20102;-83
2022/09/30 05:31:08;;;;;;;6.03;4.03;;;;;;;3.94;89.71;100867.66;4954954;29;20031;-83
2022/09/30 05:33:34;;;;;;;6.40;3.78;;;;;;;3.94;90.21;100871.09;4955612;29;20019;-83
2022/09/30 05:36:18;;;;;;;5.87;4.00;;;;;;;3.92;89.75;100870.19;4955868;29;20376;-83
2022/09/30 05:38:44;;;;;;;7.70;4.13;;;;;;;3.94;90.11;100876.22;4955285;29;20279;-83
2022/09/30 05:41:24;;;;;;;6.32;3.90;;;;;;;3.93;90.22;100884.75;4955507;29;20027;-83
2022/09/30 05:43:50;;;;;;;6.75;3.92;;;;;;;3.94;90.29;100889.06;4954886;29;20102;-83
2022/09/30 05:46:24;;;;;;;6.72;3.90;;;;;;;3.95;90.13;100890.78;4954319;29;20443;-82
2022/09/30 05:48:53;;;;;;;6.30;3.97;;;;;;;3.97;90.42;100899.38;4954820;29;20035;-83
2022/09/30 05:51:30;;;;;;;6.32;3.95;;;;;;;3.99;89.95;100905.41;4955098;29;20083;-84
2022/09/30 05:53:55;;;;;;;6.05;4.10;;;;;;;4.00;90.10;100907.09;4954644;29;20027;-85
2022/09/30 05:56:42;;;;;;;7.90;4.22;;;;;;;4.06;90.15;100915.75;4955528;29;20031;-82
2022/09/30 05:59:07;;;;;;;6.28;3.80;;;;;;;4.03;90.28;100911.44;4954196;29;20023;-82
2022/09/30 06:01:33;;;;;;;6.22;3.92;;;;;;;4.02;90.29;100919.97;4955327;29;20031;-79
2022/09/30 06:03:58;;;;;;;6.28;3.95;;;;;;;4.03;89.98;100914.00;4955086;29;20067;-79
2022/09/30 06:06:24;;;;;;;6.25;3.90;;;;;;;4.06;90.42;100926.00;4954043;29;20019;-78
2022/09/30 06:08:50;;;;;;;4.70;3.22;;;;;;;4.07;90.54;100923.47;4953985;28;20114;-79
2022/09/30 06:11:18;;;;;;;6.18;3.70;;;;;;;4.10;90.54;100930.38;4955525;29;20192;-78
2022/09/30 06:13:44;;;;;;;5.70;3.55;;;;;;;4.11;90.34;100932.94;4953930;29;20094;-78
2022/09/30 06:16:10;;;;;;;4.97;3.40;;;;;;;4.11;90.60;100930.38;4954670;29;20031;-79
2022/09/30 06:18:37;;;;;;;5.68;3.85;;;;;;;4.11;90.54;100932.94;4954779;29;20114;-79
2022/09/30 06:21:04;;;;;;;5.10;3.45;;;;;;;4.13;90.62;100933.81;4954217;29;20027;-79
2022/09/30 06:23:32;;;;;;;6.07;3.70;;;;;;;4.15;90.62;100938.97;4955440;29;20058;-79
2022/09/30 06:25:58;;;;;;;7.35;3.53;;;;;;;4.20;90.81;100941.59;4955032;29;20032;-79
2022/09/30 06:28:23;;;;;;;4.38;3.10;;;;;;;4.22;91.09;100942.47;4954630;29;20110;-78
2022/09/30 06:30:49;;;;;;;4.90;3.05;;;;;;;4.30;91.21;100948.56;4954764;29;20480;-79
2022/09/30 06:33:15;;;;;;;5.53;3.67;;;;;;;4.38;91.75;100944.41;4955134;29;20023;-79
2022/09/30 06:35:46;;;;;;;3.60;2.90;;;;;;;4.44;91.49;100952.19;4954179;29;20035;-79
2022/09/30 06:38:19;;;;;;;3.35;2.70;;;;;;;4.51;91.28;100944.53;5005477;23;20058;-79
2022/09/30 06:41:00;;;;;;;4.10;3.03;;;;;;;4.59;92.21;100943.78;4953671;29;20051;-79
2022/09/30 06:43:34;;;;;;;5.50;3.70;;;;;;;4.68;92.79;100939.56;4954436;29;20039;-79
2022/09/30 06:46:11;;;;;;;6.30;4.20;;;;;;;4.77;93.34;100935.41;4953981;29;20027;-79
2022/09/30 06:48:39;;;;;;;8.10;4.90;;;;;;;4.93;93.72;100935.56;4966584;28;20113;-79
2022/09/30 06:51:04;;;;;;;7.80;4.82;;;;;;;5.42;94.58;100929.94;4973850;28;20023;-83
2022/09/30 06:53:29;;;;;;;7.32;4.45;;;;;;;6.27;94.23;100933.03;4974270;28;20070;-84
2022/09/30 06:55:56;;;;;;;8.18;5.05;;;;;;;6.80;93.32;100928.91;4973177;28;20122;-84
2022/09/30 06:58:23;;;;;;;7.93;4.93;;;;;;;6.84;91.91;100932.34;4974090;28;20019;-85
2022/09/30 07:01:05;;;;;;;8.27;4.88;;;;;;;6.67;91.04;100934.00;4974303;28;20034;-84
2022/09/30 07:03:33;;;;;;;8.60;4.90;;;;;;;6.55;91.06;100938.28;4952940;29;20027;-82
2022/09/30 07:06:00;;;;;;;10.75;6.20;;;;;;;6.42;91.73;100939.09;4954521;29;20176;-83
2022/09/30 07:08:31;;;;;;;9.90;5.60;;;;;;;6.30;92.37;100933.06;4954763;29;20027;-83
2022/09/30 07:11:01;;;;;;;10.55;5.75;;;;;;;6.26;92.27;100935.59;4953493;29;20497;-82
2022/09/30 07:13:27;;;;;;;11.32;6.40;;;;;;;6.24;92.51;100947.63;4954546;29;20468;-82
2022/09/30 07:15:53;;;;;;;10.23;5.85;;;;;;;6.23;92.90;100949.34;4953940;29;20059;-82
2022/09/30 07:18:20;;;;;;;11.80;6.60;;;;;;;6.23;94.33;100941.59;4954148;29;20081;-82
2022/09/30 07:20:49;;;;;;;;;;;;;;;6.25;93.75;100941.63;4957266;28;20055;-82
2022/09/30 07:23:14;;;;;;;11.27;5.97;;;;;;;6.28;93.91;100933.88;4958284;29;19957;-82
2022/09/30 07:26:01;;;;;;;12.15;6.63;;;;;;;6.37;95.48;100935.66;4951587;29;20066;-82
2022/09/30 07:28:30;;;;;;;16.15;8.55;;;;;;;6.49;97.18;100940.84;4958091;29;20028;-84
2022/09/30 07:31:20;;;;;;;13.95;7.70;;;;;;;6.57;96.68;100936.56;4957494;29;20071;-83
2022/09/30 07:33:50;;;;;;;13.55;7.65;;;;;;;6.67;95.98;100939.16;4956056;29;20031;-84
2022/09/30 07:36:28;;;;;;;12.32;6.45;;;;;;;6.72;95.39;100952.94;4948465;29;20041;-83
2022/09/30 07:38:55;;;;;;;8.60;5.18;;;;;;;6.79;94.85;100947.81;4956441;29;20078;-83
2022/09/30 07:41:25;;;;;;;9.65;5.60;;;;;;;6.93;96.35;100947.81;4958081;29;20039;-83
2022/09/30 07:44:01;;;;;;;12.00;6.65;;;;;;;7.04;96.42;100946.97;4951965;29;20044;-85
2022/09/30 07:46:32;;;;;;;10.20;5.93;;;;;;;7.14;96.30;100948.69;4956849;29;20023;-83
2022/09/30 07:49:05;;;;;;;9.98;5.88;;;;;;;7.25;96.24;100956.47;4958053;29;20047;-84
2022/09/30 07:51:43;;;;;;;10.90;6.22;;;;;;;7.36;96.79;100957.31;4951985;28;20035;-83
2022/09/30 07:54:34;;;;;;;15.02;8.68;;;;;;;7.52;98.57;100945.25;4957442;28;20603;-82
2022/09/30 07:57:02;;;;;;;16.75;8.80;;;;;;;7.69;98.50;100940.06;4957337;28;20027;-84
2022/09/30 07:59:29;;;;;;;11.98;7.28;;;;;;;7.82;97.51;100946.06;4957556;29;20118;-83
2022/09/30 08:01:54;;;;;;;;;;;;;;;7.92;97.36;100941.75;4957926;29;20027;-83
2022/09/30 08:04:37;;;;;;;11.50;6.67;;;;;;;8.04;97.64;100943.41;4957908;29;19915;-82
2022/09/30 08:07:04;;;;;;;13.07;7.20;;;;;;;8.16;98.36;100943.38;4956248;29;20023;-82
2022/09/30 08:09:29;;;;;;;13.02;7.30;;;;;;;8.28;97.82;100942.47;4956863;29;20491;-81
2022/09/30 08:12:04;;;;;;;16.27;8.97;;;;;;;8.43;98.78;100941.56;4956662;29;20031;-83
2022/09/30 08:14:29;;;;;;;16.48;9.48;;;;;;;8.55;98.70;100940.66;4956117;29;20102;-84
2022/09/30 08:16:57;;;;;;;18.70;9.73;;;;;;;8.65;98.27;100941.47;4956644;29;20027;-83
2022/09/30 08:19:23;;;;;;;17.70;10.00;;;;;;;8.80;98.23;100943.09;4957019;29;20432;-84
2022/09/30 08:21:50;;;;;;;17.10;10.25;;;;;;;8.92;97.23;100939.56;4955800;29;20514;-83
2022/09/30 08:24:15;;;;;;;16.60;9.10;;;;;;;9.02;97.00;100943.81;4955588;29;20078;-81
2022/09/30 08:26:41;;;;;;;17.63;9.20;;;;;;;9.11;96.13;100946.34;4955908;29;20432;-81
2022/09/30 08:29:09;;;;;;;16.15;9.23;;;;;;;9.23;96.57;100947.97;4957007;29;20094;-82
2022/09/30 08:31:53;;;;;;;18.63;10.60;;;;;;;9.38;95.49;100949.56;4955252;28;20020;-81
2022/09/30 08:34:18;;;;;;;17.33;9.60;;;;;;;9.48;94.42;100952.94;4955687;29;20122;-82
2022/09/30 08:36:45;;;;;;;13.20;7.40;;;;;;;9.58;94.69;100948.53;4956902;29;20405;-81
2022/09/30 08:39:29;;;;;;;12.07;7.03;;;;;;;9.69;95.10;100941.50;4956312;29;20118;-81
2022/09/30 08:42:04;;;;;;;12.95;7.40;;;;;;;9.85;95.19;100951.72;4955669;29;20054;-82
2022/09/30 08:44:48;;;;;;;11.98;7.05;;;;;;;9.97;94.61;100950.72;4956676;29;20031;-81
2022/09/30 08:47:13;;;;;;;15.88;8.68;;;;;;;10.15;94.65;100957.44;4953036;29;20030;-81
2022/09/30 08:50:10;;;;;;;18.47;11.00;;;;;;;10.31;92.53;100964.16;4955855;29;20027;-82
2022/09/30 08:52:57;;;;;;;20.92;12.85;;;;;;;10.45;92.74;100970.97;4955956;29;20031;-82
2022/09/30 08:55:28;;;;;;;17.65;10.15;;;;;;;10.56;92.75;100973.41;4955554;29;20125;-82
2022/09/30 08:58:15;;;;;;;18.52;11.20;;;;;;;10.65;91.85;100966.34;4956239;29;20492;-82
2022/09/30 09:01:28;;;;;;;18.58;10.40;;;;;;;10.86;92.12;100963.50;4955458;29;20532;-82
2022/09/30 09:03:55;;;;;;;20.15;11.40;;;;;;;11.04;92.09;100960.59;4932802;29;20039;-82
2022/09/30 09:07:20;;;;;;;15.95;9.10;;;;;;;11.20;91.13;100966.41;4956004;29;20023;-83
2022/09/30 09:10:11;;;;;;;19.73;11.68;;;;;;;11.41;89.18;100953.94;4955113;29;20106;-82
2022/09/30 09:12:44;;;;;;;19.27;11.10;;;;;;;11.52;88.97;100943.38;4944602;29;20552;-83
2022/09/30 09:18:24;;;;;;;17.13;9.30;;;;;;;11.76;89.66;100960.28;4969313;23;20055;-82
2022/09/30 09:20:57;;;;;;;17.17;9.85;;;;;;;11.86;87.92;100964.41;4952529;29;20517;-83
2022/09/30 09:23:23;;;;;;;15.32;8.00;;;;;;;11.97;89.03;100964.22;4955350;29;20500;-82
2022/09/30 09:25:51;;;;;;;10.98;6.35;;;;;;;12.07;89.04;100954.50;4956241;29;20059;-82
2022/09/30 09:28:47;;;;;;;10.32;5.43;;;;;;;12.23;89.64;100956.81;4955995;29;20480;-82
2022/09/30 09:31:15;;;;;;;9.52;5.38;;;;;;;12.37;88.53;100957.41;4955286;29;20031;-83
2022/09/30 09:33:42;;;;;;;6.80;4.20;;;;;;;12.51;89.42;100972.72;4956177;29;20027;-83
2022/09/30 09:36:45;;;;;;;6.93;4.18;;;;;;;12.70;88.80;100980.13;4955749;29;20030;-82
2022/09/30 09:39:42;;;;;;;12.25;6.72;;;;;;;12.86;83.97;100971.09;4954569;29;20569;-82
2022/09/30 09:42:26;;;;;;;13.25;7.07;;;;;;;12.97;86.35;100973.44;4947517;29;20492;-83
2022/09/30 09:45:12;;;;;;;13.13;7.47;;;;;;;13.10;85.77;100959.22;4954628;29;20051;-83
2022/09/30 09:47:38;;;;;;;16.55;8.00;;;;;;;13.25;85.04;100962.34;4955971;29;20040;-83
2022/09/30 09:50:15;;;;;;;12.90;7.53;;;;;;;13.38;85.28;100963.78;4955618;29;20023;-84
2022/09/30 09:55:30;;;;;;;11.38;6.35;;;;;;;13.61;83.38;100964.97;4934390;29;20051;-83
2022/09/30 10:01:33;;;;;;;12.27;7.00;;;;;;;13.86;82.57;100946.03;4914707;29;20466;-86
2022/09/30 10:04:17;;;;;;;11.50;6.35;;;;;;;13.98;82.84;100953.53;4914292;29;20394;-86
2022/09/30 10:06:59;;;;;;;12.77;7.03;;;;;;;14.17;79.71;100955.63;4915831;29;20038;-85
2022/09/30 10:09:46;;;;;;;9.82;5.65;;;;;;;14.27;81.82;100956.22;4916996;29;20028;-86
2022/09/30 10:12:12;;;;;;;9.23;5.15;;;;;;;14.39;82.47;100949.78;4916642;29;20028;-85
2022/09/30 10:14:50;;;;;;;7.60;5.07;;;;;;;14.46;80.87;100949.56;4917523;29;20059;-87
2022/09/30 10:17:33;;;;;;;11.90;6.18;;;;;;;14.59;79.67;100957.00;4930655;29;20028;-87
2022/09/30 10:20:05;;;;;;;9.77;5.30;;;;;;;14.71;79.26;100956.66;4935313;29;20477;-86
2022/09/30 10:22:36;;;;;;;9.10;5.32;;;;;;;14.81;80.17;100959.84;4930788;29;20131;-88
2022/09/30 10:25:23;;;;;;;9.10;4.50;;;;;;;14.91;78.95;100963.88;4971127;23;20500;-87
2022/09/30 10:27:56;;;;;;;10.35;5.38;;;;;;;14.97;78.14;100953.22;4974193;28;20102;-86
2022/09/30 10:30:45;;;;;;;8.90;4.88;;;;;;;15.06;75.06;100959.09;4974305;28;20058;-86
2022/09/30 10:33:28;;;;;;;7.63;5.00;;;;;;;15.09;78.23;100961.59;4973834;28;20485;-86
2022/09/30 10:36:14;;;;;;;6.72;4.38;;;;;;;15.18;76.64;100958.69;4974642;28;20511;-85
2022/09/30 10:39:02;;;;;;;;;;;;;;;15.32;77.21;100962.59;4974550;28;20035;-86
2022/09/30 10:41:37;;;;;;;5.80;3.78;;;;;;;15.39;76.74;100961.50;4973028;28;19929;-85
2022/09/30 10:44:24;;;;;;;5.75;4.00;;;;;;;15.38;73.92;100959.78;4974377;28;20023;-85
2022/09/30 10:47:13;;;;;;;7.18;4.55;;;;;;;15.40;76.49;100958.81;4973621;28;20042;-86
2022/09/30 10:50:06;;;;;;;6.28;4.28;;;;;;;15.42;74.74;100964.84;4973134;28;20035;-86
2022/09/30 10:53:18;;;;;;;6.80;4.35;;;;;;;15.43;72.10;100963.09;4972792;28;20177;-86
2022/09/30 10:55:55;;;;;;;5.68;3.70;;;;;;;15.61;76.51;100966.84;4955955;28;20384;-90
2022/09/30 10:58:22;;;;;;;5.38;3.10;;;;;;;15.83;76.33;100971.31;4955654;29;20022;-88
2022/09/30 11:00:56;;;;;;;4.60;3.33;;;;;;;15.96;74.26;100963.94;4972179;28;20043;-86
2022/09/30 11:03:42;;;;;;;7.13;4.00;;;;;;;16.11;72.73;100963.38;4973614;28;20050;-86
2022/09/30 11:06:13;;;;;;;5.70;4.20;;;;;;;16.16;70.74;100956.22;4962704;28;20443;-84
2022/09/30 11:09:02;;;;;;;5.05;3.65;;;;;;;16.25;69.81;100954.16;4966584;28;20047;-86
2022/09/30 11:11:47;;;;;;;5.47;3.78;;;;;;;16.36;72.02;100945.00;4974271;28;20435;-85
2022/09/30 11:14:55;;;;;;;5.10;3.50;;;;;;;16.25;71.11;100956.78;4974060;28;20045;-86
2022/09/30 11:17:32;;;;;;;4.68;3.40;;;;;;;16.23;68.63;100940.25;4973389;28;20515;-86
2022/09/30 11:20:35;;;;;;;4.00;3.00;;;;;;;16.24;66.63;100949.81;4973554;28;20387;-84
2022/09/30 11:23:17;;;;;;;2.90;2.60;;;;;;;16.03;69.06;100957.56;4970150;28;20235;-86
2022/09/30 11:26:05;;;;;;;2.85;2.55;;;;;;;15.86;69.14;100945.09;4973760;28;20507;-86
2022/09/30 11:29:07;;;;;;;2.70;2.40;;;;;;;15.80;69.41;100945.28;4973306;28;20023;-86
2022/09/30 11:31:38;;;;;;;2.20;2.00;;;;;;;15.76;69.79;100944.53;4972895;28;20554;-85
2022/09/30 11:34:22;;;;;;;2.15;1.95;;;;;;;15.88;70.06;100936.25;4973454;28;20027;-86
2022/09/30 11:37:03;;;;;;;2.60;2.40;;;;;;;16.00;70.69;100941.97;4973131;28;20082;-85
2022/09/30 11:39:43;;;;;;;2.17;2.00;;;;;;;16.14;70.13;100939.69;4973616;28;20046;-85
2022/09/30 11:42:36;;;;;;;2.92;2.40;;;;;;;16.30;67.40;100933.91;4980230;23;20054;-87
2022/09/30 11:45:38;;;;;;;2.90;2.50;;;;;;;16.41;67.78;100931.72;4973039;28;20034;-86
2022/09/30 11:48:22;;;;;;;3.22;2.58;;;;;;;16.51;67.82;100924.34;4972906;28;20375;-85
2022/09/30 11:51:16;;;;;;;4.38;2.90;;;;;;;16.50;66.98;100920.00;4968391;28;20483;-85
2022/09/30 11:53:58;;;;;;;3.10;2.60;;;;;;;16.55;67.55;100917.25;4969229;28;20035;-85
2022/09/30 11:57:01;;;;;;;3.10;2.10;;;;;;;16.66;69.00;100909.81;4972777;28;20035;-85
2022/09/30 11:59:38;;;;;;;3.65;2.63;;;;;;;16.74;64.75;100917.34;4972139;28;20041;-85
2022/09/30 12:02:17;;;;;;;3.83;2.88;;;;;;;16.66;65.92;100915.88;4972370;28;20377;-83
2022/09/30 12:04:45;;;;;;;2.60;2.17;;;;;;;16.67;67.14;100919.34;4972411;28;20026;-84
2022/09/30 12:07:23;;;;;;;2.83;2.15;;;;;;;16.62;64.22;100916.06;4973026;28;20034;-85
2022/09/30 12:10:02;;;;;;;4.93;2.70;;;;;;;16.49;63.99;100919.16;4976399;28;20062;-85
2022/09/30 12:12:27;;;;;;;2.75;2.30;;;;;;;16.40;64.19;100914.28;4975798;28;20383;-85
2022/09/30 12:14:59;;;;;;;2.97;2.50;;;;;;;16.43;66.79;100903.72;4976699;28;20039;-85
2022/09/30 12:17:26;;;;;;;2.30;2.05;;;;;;;16.46;66.82;100900.94;4976752;28;20029;-85